Terminal Aerodrome Forecast
Issued by NWS

Home | Current Version | Previous Version | Graphics & Text | Print | Product List | Glossary On
Versions: 1 2 3 4 5 6 7 8 9 10 11 12 13 14 15 16 17 18 19 20 21 22 23 24 25
280
FTUS43 KGRB 221720
TAFRHI
TAF
KRHI 221720Z 2218/2318 20008KT P6SM SKC
     FM230200 15003KT P6SM SKC WS008/19030KT
     FM231600 18014G23KT P6SM SCT250=

USA.gov is the U.S. government's official web portal to all federal, state and local government web resources and services.